createdAt,value
2023-05-20T00:00:04.145Z,10.80
2023-05-20T00:02:32.062Z,10.70
2023-05-20T00:05:00.138Z,10.70
2023-05-20T00:07:28.102Z,10.80
2023-05-20T00:09:55.054Z,10.80
2023-05-20T00:12:22.243Z,10.90
2023-05-20T00:14:50.132Z,10.90
2023-05-20T00:17:21.613Z,10.90
2023-05-20T00:19:48.538Z,10.90
2023-05-20T00:22:16.281Z,10.80
2023-05-20T00:24:44.613Z,10.80
2023-05-20T00:27:12.268Z,10.70
2023-05-20T00:29:40.318Z,10.70
2023-05-20T00:32:08.725Z,10.70
2023-05-20T00:34:36.610Z,10.60
2023-05-20T00:37:03.663Z,10.60
2023-05-20T00:39:30.594Z,10.60
2023-05-20T00:42:01.991Z,10.60
2023-05-20T00:44:29.738Z,10.60
2023-05-20T00:46:57.516Z,10.60
2023-05-20T00:49:28.909Z,10.50
2023-05-20T00:51:57.040Z,10.50
2023-05-20T00:54:24.272Z,10.50
2023-05-20T00:56:51.657Z,10.50
2023-05-20T00:59:18.440Z,10.50
2023-05-20T01:01:45.286Z,10.50
2023-05-20T01:04:12.221Z,10.40
2023-05-20T01:06:41.481Z,10.40
2023-05-20T01:09:09.538Z,10.40
2023-05-20T01:11:40.245Z,10.40
2023-05-20T01:14:08.941Z,10.40
2023-05-20T01:16:37.350Z,10.40
2023-05-20T01:19:05.583Z,10.30
2023-05-20T01:21:32.716Z,10.30
2023-05-20T01:24:01.763Z,10.30
2023-05-20T01:26:29.131Z,10.30
2023-05-20T01:28:58.080Z,10.30
2023-05-20T01:31:28.059Z,10.30
2023-05-20T01:33:56.553Z,10.30
2023-05-20T01:36:23.579Z,10.20
2023-05-20T01:38:50.492Z,10.20
2023-05-20T01:41:17.260Z,10.20
2023-05-20T01:43:44.233Z,10.20
2023-05-20T01:46:11.100Z,10.20
2023-05-20T01:48:38.434Z,10.10
2023-05-20T01:51:05.355Z,10.10
2023-05-20T01:53:32.292Z,10.10
2023-05-20T01:55:59.056Z,10.10
2023-05-20T01:58:26.290Z,10.10
2023-05-20T02:00:54.660Z,10.20
2023-05-20T02:03:21.566Z,10.20
2023-05-20T02:05:48.589Z,10.20
2023-05-20T02:08:15.361Z,10.20
2023-05-20T02:10:42.217Z,10.20
2023-05-20T02:13:09.079Z,10.20
2023-05-20T02:15:36.278Z,10.20
2023-05-20T02:18:05.772Z,10.20
2023-05-20T02:20:35.303Z,10.20
2023-05-20T02:23:03.086Z,10.20
2023-05-20T02:25:29.989Z,10.10
2023-05-20T02:27:56.939Z,10.10
2023-05-20T02:30:23.805Z,10.00
2023-05-20T02:32:50.733Z,10.00
2023-05-20T02:35:18.320Z,9.90
2023-05-20T02:37:45.943Z,9.90
2023-05-20T02:40:13.050Z,9.90
2023-05-20T02:42:41.808Z,9.90
2023-05-20T02:45:09.271Z,9.90
2023-05-20T02:47:36.204Z,9.90
2023-05-20T02:50:03.460Z,9.90
2023-05-20T02:52:30.806Z,10.00
2023-05-20T02:54:57.604Z,10.00
2023-05-20T02:57:24.612Z,10.00
2023-05-20T02:59:52.506Z,10.00
2023-05-20T03:02:19.382Z,10.00
2023-05-20T03:04:47.406Z,10.00
2023-05-20T03:07:14.731Z,10.00
2023-05-20T03:09:41.659Z,10.00
2023-05-20T03:12:10.009Z,10.00
2023-05-20T03:14:36.979Z,10.00
2023-05-20T03:17:04.556Z,10.00
2023-05-20T03:19:34.111Z,10.00
2023-05-20T03:22:01.252Z,10.10
2023-05-20T03:24:28.781Z,10.10
2023-05-20T03:26:56.157Z,10.10
2023-05-20T03:29:23.573Z,10.10
2023-05-20T03:31:50.673Z,10.10
2023-05-20T03:34:17.602Z,10.10
2023-05-20T03:36:44.994Z,10.10
2023-05-20T03:39:12.338Z,10.20
2023-05-20T03:41:39.514Z,10.30
2023-05-20T03:44:06.320Z,10.40
2023-05-20T03:46:34.376Z,10.40
2023-05-20T03:49:04.701Z,10.50
2023-05-20T03:51:32.018Z,10.70
2023-05-20T03:54:01.516Z,10.80
2023-05-20T03:56:28.854Z,11.00
2023-05-20T03:58:55.751Z,11.20
2023-05-20T04:01:25.655Z,11.40
2023-05-20T04:03:52.610Z,11.60
2023-05-20T04:06:19.521Z,11.90
2023-05-20T04:08:46.985Z,12.10
2023-05-20T04:11:16.207Z,12.30
2023-05-20T04:13:51.755Z,12.50
2023-05-20T04:16:23.024Z,12.80
2023-05-20T04:18:51.144Z,13.00
2023-05-20T04:21:21.725Z,13.20
2023-05-20T04:24:01.032Z,13.30
2023-05-20T04:26:27.993Z,13.30
2023-05-20T04:28:59.479Z,13.20
2023-05-20T04:31:27.033Z,13.20
2023-05-20T04:34:01.070Z,13.10
2023-05-20T04:36:34.598Z,13.10
2023-05-20T04:39:09.562Z,13.00
2023-05-20T04:41:38.175Z,12.90
2023-05-20T04:44:08.287Z,12.80
2023-05-20T04:46:42.216Z,12.80
2023-05-20T04:49:12.445Z,12.80
2023-05-20T04:51:47.314Z,12.80
2023-05-20T04:54:15.626Z,12.80
2023-05-20T04:56:42.486Z,12.90
2023-05-20T04:59:11.709Z,13.00
2023-05-20T05:01:39.422Z,13.40
2023-05-20T05:04:06.475Z,13.90
2023-05-20T05:06:40.119Z,14.40
2023-05-20T05:09:10.281Z,14.90
2023-05-20T05:11:39.283Z,15.50
2023-05-20T05:14:08.416Z,15.90
2023-05-20T05:16:40.029Z,16.40
2023-05-20T05:19:08.947Z,16.80
2023-05-20T05:21:36.569Z,17.30
2023-05-20T05:24:03.564Z,17.60
2023-05-20T05:26:30.606Z,17.80
2023-05-20T05:29:00.693Z,17.70
2023-05-20T05:31:35.650Z,17.40
2023-05-20T05:34:04.729Z,17.10
2023-05-20T05:36:35.374Z,16.80
2023-05-20T05:39:04.235Z,16.50
2023-05-20T05:41:36.989Z,16.30
2023-05-20T05:44:07.319Z,16.20
2023-05-20T05:46:37.455Z,16.00
2023-05-20T05:49:05.008Z,16.10
2023-05-20T05:51:40.141Z,16.40
2023-05-20T05:54:10.289Z,17.00
2023-05-20T05:56:41.562Z,17.80
2023-05-20T05:59:11.222Z,18.60
2023-05-20T06:01:41.408Z,19.30
2023-05-20T06:04:11.546Z,19.80
2023-05-20T06:06:38.774Z,20.30
2023-05-20T06:09:12.345Z,20.60
2023-05-20T06:11:42.400Z,20.90
2023-05-20T06:14:13.744Z,21.00
2023-05-20T06:16:45.258Z,21.10
2023-05-20T06:19:12.134Z,21.20
2023-05-20T06:21:41.452Z,21.30
2023-05-20T06:29:46.568Z,22.00
2023-05-20T06:32:14.707Z,22.20
2023-05-20T06:34:47.149Z,22.20
2023-05-20T06:37:19.856Z,22.00
2023-05-20T06:40:04.516Z,21.70
2023-05-20T06:42:50.332Z,21.90
2023-05-20T06:48:09.534Z,22.40
2023-05-20T06:53:32.028Z,22.90
2023-05-20T07:01:35.788Z,21.70
2023-05-20T07:04:08.597Z,21.80
2023-05-20T07:06:40.380Z,21.80
2023-05-20T07:12:02.300Z,21.60
2023-05-20T07:14:32.382Z,21.30
2023-05-20T07:16:59.370Z,21.10
2023-05-20T07:19:26.445Z,21.00
2023-05-20T07:21:53.643Z,20.90
2023-05-20T07:24:20.911Z,20.70
2023-05-20T07:26:48.509Z,20.10
2023-05-20T07:29:15.344Z,19.80
2023-05-20T07:31:42.208Z,19.40
2023-05-20T07:34:09.452Z,19.00
2023-05-20T07:36:37.969Z,18.80
2023-05-20T07:39:07.824Z,18.90
2023-05-20T07:41:42.540Z,19.40
2023-05-20T07:44:11.298Z,20.10
2023-05-20T07:46:42.325Z,20.60
2023-05-20T07:49:09.204Z,20.70
2023-05-20T07:51:38.340Z,20.80
2023-05-20T07:54:05.264Z,21.00
2023-05-20T07:56:34.286Z,21.40
2023-05-20T07:59:03.265Z,21.90
2023-05-20T08:01:32.816Z,22.20
2023-05-20T08:04:01.932Z,22.40
2023-05-20T08:06:29.972Z,22.60
2023-05-20T09:24:50.598Z,21.70
2023-05-20T09:27:20.541Z,21.70
2023-05-20T09:29:51.670Z,21.90
2023-05-20T09:32:39.659Z,22.10
2023-05-20T09:35:09.916Z,22.50
2023-05-20T09:37:42.348Z,22.80
2023-05-20T09:58:30.414Z,23.30
2023-05-20T10:07:41.717Z,24.00
2023-05-20T10:11:04.976Z,24.00
2023-05-20T10:14:13.395Z,23.70
2023-05-20T10:23:09.095Z,23.90
2023-05-20T18:30:37.378Z,21.10
2023-05-20T22:04:44.554Z,15.00
2023-05-20T22:07:11.463Z,15.00
2023-05-20T22:09:38.786Z,14.90
2023-05-20T22:12:05.638Z,14.90
2023-05-20T22:14:32.525Z,14.90
2023-05-20T22:16:59.377Z,14.90
2023-05-20T22:19:26.823Z,14.90
2023-05-20T22:21:53.826Z,14.90
2023-05-20T22:24:20.862Z,14.80
2023-05-20T22:26:47.977Z,14.80
2023-05-20T22:29:14.931Z,14.80
2023-05-20T22:31:42.020Z,14.80
2023-05-20T22:34:08.996Z,14.80
2023-05-20T22:36:37.486Z,14.80
2023-05-20T22:39:06.779Z,14.80
2023-05-20T22:41:33.664Z,14.70
2023-05-20T22:44:00.827Z,14.70
2023-05-20T22:46:27.743Z,14.70
2023-05-20T22:48:55.650Z,14.70
2023-05-20T22:51:24.596Z,14.80
2023-05-20T22:53:54.031Z,14.80
2023-05-20T22:56:21.306Z,14.70
2023-05-20T22:58:49.134Z,14.70
2023-05-20T23:01:16.828Z,14.60
2023-05-20T23:03:46.911Z,14.60
2023-05-20T23:06:13.830Z,14.60
2023-05-20T23:08:42.892Z,14.50
2023-05-20T23:11:11.038Z,14.50
2023-05-20T23:13:38.325Z,14.40
2023-05-20T23:16:06.195Z,14.40
2023-05-20T23:18:33.383Z,14.40
2023-05-20T23:21:01.435Z,14.30
2023-05-20T23:23:31.810Z,14.30
2023-05-20T23:25:59.459Z,14.20
2023-05-20T23:28:26.884Z,14.20
2023-05-20T23:30:54.793Z,14.20
2023-05-20T23:33:25.404Z,14.20
2023-05-20T23:35:53.077Z,14.10
2023-05-20T23:38:20.070Z,14.10
2023-05-20T23:40:47.162Z,14.10
2023-05-20T23:43:14.809Z,14.10
2023-05-20T23:45:43.592Z,14.00
2023-05-20T23:48:13.334Z,13.90
2023-05-20T23:51:00.393Z,13.90
2023-05-20T23:53:27.727Z,13.90
2023-05-20T23:55:55.647Z,13.90
2023-05-20T23:58:22.792Z,13.90
